»·PEaware :: N281ND KYKM-KDLS

N281ND :: KYKM-KDLS

FLIGHT INFORMATION

Flight Status: Arrived
Operator: Privately registered:
United States
More flights under this callsign
Pilot: Richard M. (15032)
Aircraft: PIPER PA-28 CHEROKEE ARCHER
(PA28)
More flights by this aircraft type
Origin: KYKM Yakima Air Term/Mcallister
United States
Destination: KDLS Columbia Gorge Regl/The Dalle
United States
More flights between these airports :: More routes between these airports
Route: +GROMO4 GUBSE V25 LTJ
File this flight plan on PilotEdge
Remarks:
Altitude:
(Current/Filed)
8,000ft
Speed:
(Current/Filed)
125kts
Departed: 25-Apr-20 02:31 PM
Arrived: 25-Apr-20 03:10 PM
Distance/Time
Traveled:
63nm/0:39
Distance/Time
To Go:
Arrived

Flight Plot

Page will automatically refresh every two minutes.


Map Options




Map Legend


Flown Route
Filed Route
Departure Airport
Arrival Airport
Navaid (VOR, NDB)
Fix

Horizontal Profiles

Position Reports

Time Latitude Longitude Heading Altitude Ground
Speed
25-Apr-20 14:03 46.569735 -120.537513 90 1061ft 0kts
25-Apr-20 14:04 46.569735 -120.537512 90 1061ft 0kts
25-Apr-20 14:05 46.569735 -120.537512 90 1061ft 0kts
25-Apr-20 14:06 46.569735 -120.537512 90 1061ft 0kts
25-Apr-20 14:07 46.569735 -120.537512 90 1061ft 0kts
25-Apr-20 14:08 46.569735 -120.537512 90 1061ft 0kts
25-Apr-20 14:09 46.569735 -120.537512 90 1061ft 0kts
25-Apr-20 14:10 46.569735 -120.537512 90 1061ft 0kts
25-Apr-20 14:11 46.569735 -120.537512 90 1061ft 0kts
25-Apr-20 14:12 46.569735 -120.537512 90 1061ft 0kts
25-Apr-20 14:13 46.569735 -120.537512 90 1061ft 0kts
25-Apr-20 14:14 46.569735 -120.537512 90 1061ft 0kts
25-Apr-20 14:15 46.569735 -120.537512 90 1061ft 0kts
25-Apr-20 14:16 46.569735 -120.537512 90 1061ft 0kts
25-Apr-20 14:17 46.569735 -120.537512 90 1061ft 0kts
25-Apr-20 14:18 46.569735 -120.537512 90 1061ft 0kts
25-Apr-20 14:19 46.569735 -120.537512 90 1061ft 0kts
25-Apr-20 14:20 46.569735 -120.537512 90 1061ft 0kts
25-Apr-20 14:21 46.569735 -120.537512 90 1061ft 0kts
25-Apr-20 14:22 46.569735 -120.537512 90 1061ft 0kts
25-Apr-20 14:23 46.569481 -120.537248 184 1060ft 14kts
25-Apr-20 14:24 46.570079 -120.545007 287 1075ft 27kts
25-Apr-20 14:25 46.572348 -120.554111 290 1090ft 24kts
25-Apr-20 14:26 46.573543 -120.558777 240 1099ft 0kts
25-Apr-20 14:27 46.573543 -120.558777 240 1099ft 0kts
25-Apr-20 14:28 46.573525 -120.558815 228 1099ft 4kts
25-Apr-20 14:29 46.573501 -120.558845 218 1099ft 0kts
25-Apr-20 14:30 46.569556 -120.548476 114 1221ft 82kts
25-Apr-20 14:31 46.566639 -120.515558 19 2040ft 98kts
25-Apr-20 14:32 46.572683 -120.548543 242 2402ft 129kts
25-Apr-20 14:33 46.567403 -120.596518 291 2760ft 123kts
25-Apr-20 14:34 46.571344 -120.645622 269 3136ft 123kts
25-Apr-20 14:35 46.547177 -120.663626 160 3649ft 131kts
25-Apr-20 14:36 46.512814 -120.646228 157 4150ft 132kts
25-Apr-20 14:37 46.480615 -120.619545 142 4655ft 134kts
25-Apr-20 14:38 46.453986 -120.582471 127 5224ft 131kts
25-Apr-20 14:39 46.429834 -120.546425 187 5811ft 123kts
25-Apr-20 14:40 46.404890 -120.571643 222 6413ft 111kts
25-Apr-20 14:41 46.377993 -120.593783 219 7007ft 110kts
25-Apr-20 14:42 46.351611 -120.614251 220 7602ft 105kts
25-Apr-20 14:43 46.325247 -120.632499 216 8067ft 112kts
25-Apr-20 14:44 46.294683 -120.653856 218 8068ft 127kts
25-Apr-20 14:45 46.263560 -120.678550 220 8067ft 127kts
25-Apr-20 14:46 46.232603 -120.703878 220 8067ft 127kts
25-Apr-20 14:47 46.201775 -120.729098 220 8068ft 127kts
25-Apr-20 14:48 46.171093 -120.754158 220 8071ft 127kts
25-Apr-20 14:49 46.140484 -120.779113 220 8077ft 127kts
25-Apr-20 14:50 46.109529 -120.804266 220 8086ft 126kts
25-Apr-20 14:51 46.078716 -120.829223 220 8098ft 126kts
25-Apr-20 14:52 46.048158 -120.853876 220 8112ft 126kts
25-Apr-20 14:53 46.017623 -120.878410 220 8123ft 125kts
25-Apr-20 14:54 45.987215 -120.902789 220 8132ft 125kts
25-Apr-20 14:55 45.955828 -120.925799 217 8137ft 126kts
25-Apr-20 14:56 45.924153 -120.947919 217 8139ft 126kts
25-Apr-20 14:57 45.892708 -120.969857 217 8138ft 126kts
25-Apr-20 14:58 45.861049 -120.992152 218 8138ft 126kts
25-Apr-20 14:59 45.829811 -121.014787 218 8138ft 126kts
25-Apr-20 15:00 45.798554 -121.037557 218 8119ft 124kts
25-Apr-20 15:01 45.766528 -121.061210 218 7448ft 134kts
25-Apr-20 15:02 45.737086 -121.081899 218 6338ft 100kts
25-Apr-20 15:03 45.710693 -121.099236 218 4799ft 110kts
25-Apr-20 15:04 45.683700 -121.118168 217 3240ft 101kts
25-Apr-20 15:05 45.661014 -121.132699 215 2019ft 94kts
25-Apr-20 15:06 45.638585 -121.147500 220 1154ft 77kts
25-Apr-20 15:07 45.618665 -121.147773 134 894ft 92kts
25-Apr-20 15:08 45.608057 -121.157231 310 417ft 58kts
25-Apr-20 15:09 45.616328 -121.167449 278 234ft 0kts
25-Apr-20 15:10 45.617694 -121.171368 277 224ft 9kts

Navigation Log

Ident Type
Flight plan parsing failed, navigation log unavailable